sensor_id;sensor_type;location;lat;lon;timestamp;P1;durP1;ratioP1;P2;durP2;ratioP2
78834;SDS011;68187;42.682;23.352;2024-02-23T00:00:54;16.92;;;9.60;;
78834;SDS011;68187;42.682;23.352;2024-02-23T00:03:20;14.63;;;9.90;;
78834;SDS011;68187;42.682;23.352;2024-02-23T00:05:49;13.20;;;8.07;;
78834;SDS011;68187;42.682;23.352;2024-02-23T00:08:16;14.50;;;9.00;;
78834;SDS011;68187;42.682;23.352;2024-02-23T00:10:44;14.63;;;8.35;;
78834;SDS011;68187;42.682;23.352;2024-02-23T00:13:11;12.30;;;7.60;;
78834;SDS011;68187;42.682;23.352;2024-02-23T00:15:38;14.70;;;7.88;;
78834;SDS011;68187;42.682;23.352;2024-02-23T00:18:05;16.45;;;8.88;;
78834;SDS011;68187;42.682;23.352;2024-02-23T00:20:33;12.70;;;8.07;;
78834;SDS011;68187;42.682;23.352;2024-02-23T00:23:01;14.05;;;8.05;;
78834;SDS011;68187;42.682;23.352;2024-02-23T00:25:29;15.20;;;8.52;;
78834;SDS011;68187;42.682;23.352;2024-02-23T00:27:56;12.88;;;8.10;;
78834;SDS011;68187;42.682;23.352;2024-02-23T00:30:22;11.82;;;8.93;;
78834;SDS011;68187;42.682;23.352;2024-02-23T00:32:49;14.57;;;8.50;;
78834;SDS011;68187;42.682;23.352;2024-02-23T00:35:16;13.38;;;7.38;;
78834;SDS011;68187;42.682;23.352;2024-02-23T00:37:44;15.13;;;7.82;;
78834;SDS011;68187;42.682;23.352;2024-02-23T00:40:13;12.98;;;7.10;;
78834;SDS011;68187;42.682;23.352;2024-02-23T00:42:40;11.93;;;9.50;;
78834;SDS011;68187;42.682;23.352;2024-02-23T00:45:07;15.43;;;9.98;;
78834;SDS011;68187;42.682;23.352;2024-02-23T00:47:34;11.90;;;6.55;;
78834;SDS011;68187;42.682;23.352;2024-02-23T00:50:03;11.55;;;6.63;;
78834;SDS011;68187;42.682;23.352;2024-02-23T00:52:30;13.10;;;8.23;;
78834;SDS011;68187;42.682;23.352;2024-02-23T00:54:57;12.32;;;8.43;;
78834;SDS011;68187;42.682;23.352;2024-02-23T00:57:25;12.75;;;7.93;;
78834;SDS011;68187;42.682;23.352;2024-02-23T00:59:55;12.15;;;7.57;;
78834;SDS011;68187;42.682;23.352;2024-02-23T01:02:22;12.35;;;8.10;;
78834;SDS011;68187;42.682;23.352;2024-02-23T01:04:48;13.88;;;8.38;;
78834;SDS011;68187;42.682;23.352;2024-02-23T01:07:15;13.00;;;8.77;;
78834;SDS011;68187;42.682;23.352;2024-02-23T01:09:42;12.50;;;7.97;;
78834;SDS011;68187;42.682;23.352;2024-02-23T01:12:09;13.80;;;8.43;;
78834;SDS011;68187;42.682;23.352;2024-02-23T01:14:37;13.73;;;11.30;;
78834;SDS011;68187;42.682;23.352;2024-02-23T01:17:04;11.27;;;7.90;;
78834;SDS011;68187;42.682;23.352;2024-02-23T01:19:31;15.13;;;8.55;;
78834;SDS011;68187;42.682;23.352;2024-02-23T01:21:58;12.50;;;10.05;;
78834;SDS011;68187;42.682;23.352;2024-02-23T01:24:25;10.25;;;7.13;;
78834;SDS011;68187;42.682;23.352;2024-02-23T01:26:54;13.82;;;8.00;;
78834;SDS011;68187;42.682;23.352;2024-02-23T01:29:21;11.73;;;7.57;;
78834;SDS011;68187;42.682;23.352;2024-02-23T01:31:49;13.73;;;7.60;;
78834;SDS011;68187;42.682;23.352;2024-02-23T01:34:16;12.90;;;7.65;;
78834;SDS011;68187;42.682;23.352;2024-02-23T01:36:44;16.67;;;8.52;;
78834;SDS011;68187;42.682;23.352;2024-02-23T01:39:10;12.50;;;7.65;;
78834;SDS011;68187;42.682;23.352;2024-02-23T01:41:37;13.73;;;7.95;;
78834;SDS011;68187;42.682;23.352;2024-02-23T01:44:04;13.07;;;10.02;;
78834;SDS011;68187;42.682;23.352;2024-02-23T01:46:31;14.00;;;8.63;;
78834;SDS011;68187;42.682;23.352;2024-02-23T01:49:00;10.05;;;7.28;;
78834;SDS011;68187;42.682;23.352;2024-02-23T01:51:27;14.75;;;7.47;;
78834;SDS011;68187;42.682;23.352;2024-02-23T01:53:54;12.48;;;7.45;;
78834;SDS011;68187;42.682;23.352;2024-02-23T01:56:21;12.20;;;7.65;;
78834;SDS011;68187;42.682;23.352;2024-02-23T01:58:48;11.90;;;7.50;;
78834;SDS011;68187;42.682;23.352;2024-02-23T02:01:16;11.90;;;7.10;;
78834;SDS011;68187;42.682;23.352;2024-02-23T02:03:42;13.00;;;8.82;;
78834;SDS011;68187;42.682;23.352;2024-02-23T02:06:11;11.65;;;7.07;;
78834;SDS011;68187;42.682;23.352;2024-02-23T02:08:38;12.02;;;7.93;;
78834;SDS011;68187;42.682;23.352;2024-02-23T02:11:05;12.07;;;8.45;;
78834;SDS011;68187;42.682;23.352;2024-02-23T02:13:32;13.02;;;7.70;;
78834;SDS011;68187;42.682;23.352;2024-02-23T02:15:59;14.48;;;7.43;;
78834;SDS011;68187;42.682;23.352;2024-02-23T02:18:27;11.90;;;6.35;;
78834;SDS011;68187;42.682;23.352;2024-02-23T02:20:55;13.00;;;7.82;;
78834;SDS011;68187;42.682;23.352;2024-02-23T02:23:24;13.63;;;8.02;;
78834;SDS011;68187;42.682;23.352;2024-02-23T02:25:52;11.75;;;7.78;;
78834;SDS011;68187;42.682;23.352;2024-02-23T02:28:19;11.88;;;7.10;;
78834;SDS011;68187;42.682;23.352;2024-02-23T02:30:47;11.75;;;7.22;;
78834;SDS011;68187;42.682;23.352;2024-02-23T02:33:15;12.43;;;7.18;;
78834;SDS011;68187;42.682;23.352;2024-02-23T02:35:42;12.73;;;8.88;;
78834;SDS011;68187;42.682;23.352;2024-02-23T02:38:10;12.60;;;8.93;;
78834;SDS011;68187;42.682;23.352;2024-02-23T02:40:38;14.05;;;6.63;;
78834;SDS011;68187;42.682;23.352;2024-02-23T02:43:05;13.00;;;8.15;;
78834;SDS011;68187;42.682;23.352;2024-02-23T02:45:33;11.75;;;7.70;;
78834;SDS011;68187;42.682;23.352;2024-02-23T02:48:00;10.55;;;6.93;;
78834;SDS011;68187;42.682;23.352;2024-02-23T02:50:27;10.95;;;6.85;;
78834;SDS011;68187;42.682;23.352;2024-02-23T02:52:54;12.10;;;7.10;;
78834;SDS011;68187;42.682;23.352;2024-02-23T02:55:21;12.02;;;7.82;;
78834;SDS011;68187;42.682;23.352;2024-02-23T02:57:49;11.85;;;7.72;;
78834;SDS011;68187;42.682;23.352;2024-02-23T03:00:16;14.38;;;9.60;;
78834;SDS011;68187;42.682;23.352;2024-02-23T03:02:43;11.88;;;8.82;;
78834;SDS011;68187;42.682;23.352;2024-02-23T03:05:10;12.88;;;7.63;;
78834;SDS011;68187;42.682;23.352;2024-02-23T03:07:37;11.68;;;7.95;;
78834;SDS011;68187;42.682;23.352;2024-02-23T03:10:04;11.75;;;8.30;;
78834;SDS011;68187;42.682;23.352;2024-02-23T03:12:32;13.35;;;7.15;;
78834;SDS011;68187;42.682;23.352;2024-02-23T03:15:00;11.63;;;6.80;;
78834;SDS011;68187;42.682;23.352;2024-02-23T03:17:28;13.77;;;8.43;;
78834;SDS011;68187;42.682;23.352;2024-02-23T03:19:55;14.48;;;10.88;;
78834;SDS011;68187;42.682;23.352;2024-02-23T03:22:22;13.32;;;8.07;;
78834;SDS011;68187;42.682;23.352;2024-02-23T03:24:49;11.07;;;6.55;;
78834;SDS011;68187;42.682;23.352;2024-02-23T03:27:16;12.38;;;9.23;;
78834;SDS011;68187;42.682;23.352;2024-02-23T03:29:43;12.05;;;7.75;;
78834;SDS011;68187;42.682;23.352;2024-02-23T03:32:13;15.93;;;10.18;;
78834;SDS011;68187;42.682;23.352;2024-02-23T03:34:40;12.95;;;8.80;;
78834;SDS011;68187;42.682;23.352;2024-02-23T03:37:06;12.10;;;9.10;;
78834;SDS011;68187;42.682;23.352;2024-02-23T03:39:33;12.73;;;7.07;;
78834;SDS011;68187;42.682;23.352;2024-02-23T03:42:02;11.70;;;7.82;;
78834;SDS011;68187;42.682;23.352;2024-02-23T03:44:29;13.52;;;9.00;;
78834;SDS011;68187;42.682;23.352;2024-02-23T03:46:56;15.43;;;7.93;;
78834;SDS011;68187;42.682;23.352;2024-02-23T03:49:25;11.18;;;6.47;;
78834;SDS011;68187;42.682;23.352;2024-02-23T03:51:51;13.00;;;8.50;;
78834;SDS011;68187;42.682;23.352;2024-02-23T03:54:18;13.68;;;7.35;;
78834;SDS011;68187;42.682;23.352;2024-02-23T03:56:45;13.93;;;9.75;;
78834;SDS011;68187;42.682;23.352;2024-02-23T03:59:12;11.85;;;8.15;;
78834;SDS011;68187;42.682;23.352;2024-02-23T04:01:39;11.25;;;6.97;;
78834;SDS011;68187;42.682;23.352;2024-02-23T04:04:06;13.23;;;7.13;;
78834;SDS011;68187;42.682;23.352;2024-02-23T04:06:34;10.20;;;6.55;;
78834;SDS011;68187;42.682;23.352;2024-02-23T04:09:01;12.65;;;8.48;;
78834;SDS011;68187;42.682;23.352;2024-02-23T04:11:30;12.80;;;7.40;;
78834;SDS011;68187;42.682;23.352;2024-02-23T04:13:57;10.98;;;7.20;;
78834;SDS011;68187;42.682;23.352;2024-02-23T04:16:24;15.88;;;8.38;;
78834;SDS011;68187;42.682;23.352;2024-02-23T04:18:51;13.55;;;8.98;;
78834;SDS011;68187;42.682;23.352;2024-02-23T04:21:18;13.55;;;8.23;;
78834;SDS011;68187;42.682;23.352;2024-02-23T04:23:46;13.73;;;8.13;;
78834;SDS011;68187;42.682;23.352;2024-02-23T04:26:13;15.43;;;9.18;;
78834;SDS011;68187;42.682;23.352;2024-02-23T04:28:40;13.32;;;8.50;;
78834;SDS011;68187;42.682;23.352;2024-02-23T04:31:08;15.57;;;8.00;;
78834;SDS011;68187;42.682;23.352;2024-02-23T04:33:35;13.30;;;8.32;;
78834;SDS011;68187;42.682;23.352;2024-02-23T04:36:02;13.63;;;8.73;;
78834;SDS011;68187;42.682;23.352;2024-02-23T04:38:29;14.50;;;8.48;;
78834;SDS011;68187;42.682;23.352;2024-02-23T04:40:58;12.93;;;8.68;;
78834;SDS011;68187;42.682;23.352;2024-02-23T04:43:25;14.57;;;9.18;;
78834;SDS011;68187;42.682;23.352;2024-02-23T04:45:52;13.10;;;8.75;;
78834;SDS011;68187;42.682;23.352;2024-02-23T04:48:18;15.00;;;9.63;;
78834;SDS011;68187;42.682;23.352;2024-02-23T04:50:45;15.02;;;9.43;;
78834;SDS011;68187;42.682;23.352;2024-02-23T04:53:12;14.73;;;9.27;;
78834;SDS011;68187;42.682;23.352;2024-02-23T04:55:39;12.93;;;7.65;;
78834;SDS011;68187;42.682;23.352;2024-02-23T04:58:08;13.30;;;8.20;;
78834;SDS011;68187;42.682;23.352;2024-02-23T05:00:37;19.52;;;9.55;;
78834;SDS011;68187;42.682;23.352;2024-02-23T05:03:05;15.82;;;9.23;;
78834;SDS011;68187;42.682;23.352;2024-02-23T05:05:32;15.43;;;8.18;;
78834;SDS011;68187;42.682;23.352;2024-02-23T05:07:59;13.82;;;8.80;;
78834;SDS011;68187;42.682;23.352;2024-02-23T05:10:26;15.20;;;9.52;;
78834;SDS011;68187;42.682;23.352;2024-02-23T05:12:53;12.85;;;8.15;;
78834;SDS011;68187;42.682;23.352;2024-02-23T05:15:21;17.77;;;9.48;;
78834;SDS011;68187;42.682;23.352;2024-02-23T05:17:48;15.65;;;9.65;;
78834;SDS011;68187;42.682;23.352;2024-02-23T05:20:15;16.75;;;8.30;;
78834;SDS011;68187;42.682;23.352;2024-02-23T05:22:42;15.88;;;9.98;;
78834;SDS011;68187;42.682;23.352;2024-02-23T05:25:09;13.57;;;7.53;;
78834;SDS011;68187;42.682;23.352;2024-02-23T05:27:36;16.13;;;9.32;;
78834;SDS011;68187;42.682;23.352;2024-02-23T05:30:03;15.23;;;8.82;;
78834;SDS011;68187;42.682;23.352;2024-02-23T05:32:33;18.77;;;9.73;;
78834;SDS011;68187;42.682;23.352;2024-02-23T05:35:00;12.90;;;8.82;;
78834;SDS011;68187;42.682;23.352;2024-02-23T05:37:26;16.33;;;8.60;;
78834;SDS011;68187;42.682;23.352;2024-02-23T05:39:53;17.08;;;10.10;;
78834;SDS011;68187;42.682;23.352;2024-02-23T05:42:20;16.73;;;10.80;;
78834;SDS011;68187;42.682;23.352;2024-02-23T05:44:47;16.92;;;9.07;;
78834;SDS011;68187;42.682;23.352;2024-02-23T05:47:14;15.48;;;10.13;;
78834;SDS011;68187;42.682;23.352;2024-02-23T05:49:43;16.05;;;9.88;;
78834;SDS011;68187;42.682;23.352;2024-02-23T05:52:10;13.75;;;9.18;;
78834;SDS011;68187;42.682;23.352;2024-02-23T05:54:36;16.27;;;10.45;;
78834;SDS011;68187;42.682;23.352;2024-02-23T05:57:03;18.17;;;10.07;;
78834;SDS011;68187;42.682;23.352;2024-02-23T05:59:31;18.92;;;10.15;;
78834;SDS011;68187;42.682;23.352;2024-02-23T06:01:57;17.35;;;9.40;;
78834;SDS011;68187;42.682;23.352;2024-02-23T06:04:24;15.77;;;10.25;;
78834;SDS011;68187;42.682;23.352;2024-02-23T06:06:53;19.15;;;10.75;;
78834;SDS011;68187;42.682;23.352;2024-02-23T06:09:20;16.45;;;9.18;;
78834;SDS011;68187;42.682;23.352;2024-02-23T06:11:47;15.93;;;9.48;;
78834;SDS011;68187;42.682;23.352;2024-02-23T06:14:14;17.63;;;11.30;;
78834;SDS011;68187;42.682;23.352;2024-02-23T06:16:41;21.67;;;11.63;;
78834;SDS011;68187;42.682;23.352;2024-02-23T06:19:08;18.48;;;11.75;;
78834;SDS011;68187;42.682;23.352;2024-02-23T06:21:35;18.92;;;10.38;;
78834;SDS011;68187;42.682;23.352;2024-02-23T06:24:04;18.98;;;10.02;;
78834;SDS011;68187;42.682;23.352;2024-02-23T06:26:33;17.58;;;10.30;;
78834;SDS011;68187;42.682;23.352;2024-02-23T06:28:59;19.17;;;10.23;;
78834;SDS011;68187;42.682;23.352;2024-02-23T06:31:26;18.77;;;11.50;;
78834;SDS011;68187;42.682;23.352;2024-02-23T06:33:53;17.38;;;11.27;;
78834;SDS011;68187;42.682;23.352;2024-02-23T06:36:20;18.02;;;10.07;;
78834;SDS011;68187;42.682;23.352;2024-02-23T06:38:47;17.80;;;10.80;;
78834;SDS011;68187;42.682;23.352;2024-02-23T06:41:15;17.55;;;10.43;;
78834;SDS011;68187;42.682;23.352;2024-02-23T06:43:42;18.13;;;10.85;;
78834;SDS011;68187;42.682;23.352;2024-02-23T06:46:09;18.05;;;11.32;;
78834;SDS011;68187;42.682;23.352;2024-02-23T06:48:36;14.43;;;9.52;;
78834;SDS011;68187;42.682;23.352;2024-02-23T06:51:03;15.30;;;10.43;;
78834;SDS011;68187;42.682;23.352;2024-02-23T06:53:31;17.27;;;10.38;;
78834;SDS011;68187;42.682;23.352;2024-02-23T06:55:58;16.35;;;11.27;;
78834;SDS011;68187;42.682;23.352;2024-02-23T06:58:27;22.17;;;11.32;;
78834;SDS011;68187;42.682;23.352;2024-02-23T07:00:54;17.25;;;9.85;;
78834;SDS011;68187;42.682;23.352;2024-02-23T07:03:21;17.50;;;9.77;;
78834;SDS011;68187;42.682;23.352;2024-02-23T07:05:48;15.02;;;8.77;;
78834;SDS011;68187;42.682;23.352;2024-02-23T07:08:15;17.65;;;11.13;;
78834;SDS011;68187;42.682;23.352;2024-02-23T07:10:42;19.63;;;9.90;;
78834;SDS011;68187;42.682;23.352;2024-02-23T07:13:09;18.88;;;11.10;;
78834;SDS011;68187;42.682;23.352;2024-02-23T07:15:38;21.02;;;12.27;;
78834;SDS011;68187;42.682;23.352;2024-02-23T07:18:05;18.42;;;11.43;;
78834;SDS011;68187;42.682;23.352;2024-02-23T07:20:33;17.13;;;9.88;;
78834;SDS011;68187;42.682;23.352;2024-02-23T07:23:01;18.60;;;11.15;;
78834;SDS011;68187;42.682;23.352;2024-02-23T07:25:28;19.23;;;12.18;;
78834;SDS011;68187;42.682;23.352;2024-02-23T07:27:55;20.50;;;11.98;;
78834;SDS011;68187;42.682;23.352;2024-02-23T07:30:22;23.30;;;12.88;;
78834;SDS011;68187;42.682;23.352;2024-02-23T07:32:50;17.60;;;13.13;;
78834;SDS011;68187;42.682;23.352;2024-02-23T07:35:17;19.08;;;9.82;;
78834;SDS011;68187;42.682;23.352;2024-02-23T07:37:44;16.45;;;11.07;;
78834;SDS011;68187;42.682;23.352;2024-02-23T07:40:11;20.02;;;10.90;;
78834;SDS011;68187;42.682;23.352;2024-02-23T07:42:38;16.75;;;11.32;;
78834;SDS011;68187;42.682;23.352;2024-02-23T07:45:06;19.90;;;11.30;;
78834;SDS011;68187;42.682;23.352;2024-02-23T07:47:34;17.48;;;12.25;;
78834;SDS011;68187;42.682;23.352;2024-02-23T07:50:02;18.58;;;10.30;;
78834;SDS011;68187;42.682;23.352;2024-02-23T07:52:29;17.75;;;11.07;;
78834;SDS011;68187;42.682;23.352;2024-02-23T07:54:56;17.50;;;12.32;;
78834;SDS011;68187;42.682;23.352;2024-02-23T07:57:25;15.48;;;10.27;;
78834;SDS011;68187;42.682;23.352;2024-02-23T07:59:52;16.45;;;9.90;;
78834;SDS011;68187;42.682;23.352;2024-02-23T08:02:19;17.83;;;10.52;;
78834;SDS011;68187;42.682;23.352;2024-02-23T08:04:46;16.85;;;10.80;;
78834;SDS011;68187;42.682;23.352;2024-02-23T08:07:15;17.00;;;11.40;;
78834;SDS011;68187;42.682;23.352;2024-02-23T08:09:41;17.02;;;11.20;;
78834;SDS011;68187;42.682;23.352;2024-02-23T08:12:09;16.60;;;10.63;;
78834;SDS011;68187;42.682;23.352;2024-02-23T08:14:38;20.20;;;10.63;;
78834;SDS011;68187;42.682;23.352;2024-02-23T08:17:06;15.10;;;9.27;;
78834;SDS011;68187;42.682;23.352;2024-02-23T08:19:33;16.05;;;10.20;;
78834;SDS011;68187;42.682;23.352;2024-02-23T08:22:00;17.02;;;10.15;;
78834;SDS011;68187;42.682;23.352;2024-02-23T08:24:28;15.73;;;9.95;;
78834;SDS011;68187;42.682;23.352;2024-02-23T08:26:55;17.73;;;10.75;;
78834;SDS011;68187;42.682;23.352;2024-02-23T08:29:22;15.13;;;8.40;;
78834;SDS011;68187;42.682;23.352;2024-02-23T08:31:49;19.25;;;10.52;;
78834;SDS011;68187;42.682;23.352;2024-02-23T08:34:15;15.75;;;9.85;;
78834;SDS011;68187;42.682;23.352;2024-02-23T08:36:43;18.35;;;9.85;;
78834;SDS011;68187;42.682;23.352;2024-02-23T08:39:10;20.38;;;11.23;;
78834;SDS011;68187;42.682;23.352;2024-02-23T08:41:39;15.95;;;10.27;;
78834;SDS011;68187;42.682;23.352;2024-02-23T08:44:06;17.65;;;11.88;;
78834;SDS011;68187;42.682;23.352;2024-02-23T08:46:33;15.98;;;10.02;;
78834;SDS011;68187;42.682;23.352;2024-02-23T08:49:00;15.10;;;8.90;;
78834;SDS011;68187;42.682;23.352;2024-02-23T08:51:27;15.07;;;10.10;;
78834;SDS011;68187;42.682;23.352;2024-02-23T08:53:54;15.15;;;10.10;;
78834;SDS011;68187;42.682;23.352;2024-02-23T08:56:22;14.10;;;8.75;;
78834;SDS011;68187;42.682;23.352;2024-02-23T08:58:50;15.88;;;9.50;;
78834;SDS011;68187;42.682;23.352;2024-02-23T09:01:17;13.82;;;8.90;;
78834;SDS011;68187;42.682;23.352;2024-02-23T09:03:45;18.30;;;8.93;;
78834;SDS011;68187;42.682;23.352;2024-02-23T09:06:11;14.25;;;8.77;;
78834;SDS011;68187;42.682;23.352;2024-02-23T09:08:38;13.27;;;8.40;;
78834;SDS011;68187;42.682;23.352;2024-02-23T09:11:06;14.48;;;8.85;;
78834;SDS011;68187;42.682;23.352;2024-02-23T09:13:33;14.32;;;8.48;;
78834;SDS011;68187;42.682;23.352;2024-02-23T09:16:01;12.43;;;8.15;;
78834;SDS011;68187;42.682;23.352;2024-02-23T09:18:28;14.73;;;9.00;;
78834;SDS011;68187;42.682;23.352;2024-02-23T09:20:55;14.93;;;9.07;;
78834;SDS011;68187;42.682;23.352;2024-02-23T09:23:22;11.43;;;6.82;;
78834;SDS011;68187;42.682;23.352;2024-02-23T09:25:49;14.82;;;8.05;;
78834;SDS011;68187;42.682;23.352;2024-02-23T09:28:16;13.40;;;7.22;;
78834;SDS011;68187;42.682;23.352;2024-02-23T09:30:43;11.77;;;7.82;;
78834;SDS011;68187;42.682;23.352;2024-02-23T09:33:11;10.55;;;6.97;;
78834;SDS011;68187;42.682;23.352;2024-02-23T09:35:38;10.70;;;5.32;;
78834;SDS011;68187;42.682;23.352;2024-02-23T09:38:05;9.60;;;6.55;;
78834;SDS011;68187;42.682;23.352;2024-02-23T09:40:32;9.48;;;6.15;;
78834;SDS011;68187;42.682;23.352;2024-02-23T09:42:59;10.13;;;6.22;;
78834;SDS011;68187;42.682;23.352;2024-02-23T09:45:26;8.00;;;4.75;;
78834;SDS011;68187;42.682;23.352;2024-02-23T09:47:54;9.15;;;5.82;;
78834;SDS011;68187;42.682;23.352;2024-02-23T09:50:24;9.48;;;4.90;;
78834;SDS011;68187;42.682;23.352;2024-02-23T09:52:51;9.77;;;4.80;;
78834;SDS011;68187;42.682;23.352;2024-02-23T09:55:18;7.82;;;4.78;;
78834;SDS011;68187;42.682;23.352;2024-02-23T09:57:47;9.23;;;5.07;;
78834;SDS011;68187;42.682;23.352;2024-02-23T10:00:15;8.65;;;4.22;;
78834;SDS011;68187;42.682;23.352;2024-02-23T10:02:43;7.00;;;4.38;;
78834;SDS011;68187;42.682;23.352;2024-02-23T10:05:11;7.45;;;5.38;;
78834;SDS011;68187;42.682;23.352;2024-02-23T10:07:40;7.30;;;3.80;;
78834;SDS011;68187;42.682;23.352;2024-02-23T10:10:07;7.50;;;3.85;;
78834;SDS011;68187;42.682;23.352;2024-02-23T10:12:36;8.13;;;3.78;;
78834;SDS011;68187;42.682;23.352;2024-02-23T10:15:03;6.72;;;4.15;;
78834;SDS011;68187;42.682;23.352;2024-02-23T10:17:31;6.95;;;4.90;;
78834;SDS011;68187;42.682;23.352;2024-02-23T10:19:58;6.35;;;3.35;;
78834;SDS011;68187;42.682;23.352;2024-02-23T10:22:30;10.75;;;3.78;;
78834;SDS011;68187;42.682;23.352;2024-02-23T10:24:58;7.53;;;3.53;;
78834;SDS011;68187;42.682;23.352;2024-02-23T10:27:25;8.40;;;4.18;;
78834;SDS011;68187;42.682;23.352;2024-02-23T10:29:52;6.55;;;5.05;;
78834;SDS011;68187;42.682;23.352;2024-02-23T10:32:20;6.93;;;4.25;;
78834;SDS011;68187;42.682;23.352;2024-02-23T10:34:47;7.68;;;3.13;;
78834;SDS011;68187;42.682;23.352;2024-02-23T10:37:15;6.38;;;4.28;;
78834;SDS011;68187;42.682;23.352;2024-02-23T10:39:43;8.48;;;5.00;;
78834;SDS011;68187;42.682;23.352;2024-02-23T10:42:13;6.22;;;2.95;;
78834;SDS011;68187;42.682;23.352;2024-02-23T10:44:45;6.20;;;3.08;;
78834;SDS011;68187;42.682;23.352;2024-02-23T10:47:12;5.95;;;3.63;;
78834;SDS011;68187;42.682;23.352;2024-02-23T10:49:39;7.40;;;3.47;;
78834;SDS011;68187;42.682;23.352;2024-02-23T10:52:08;6.72;;;3.63;;
78834;SDS011;68187;42.682;23.352;2024-02-23T10:54:37;6.03;;;2.80;;
78834;SDS011;68187;42.682;23.352;2024-02-23T10:57:05;5.05;;;2.20;;
78834;SDS011;68187;42.682;23.352;2024-02-23T10:59:34;4.60;;;2.53;;
78834;SDS011;68187;42.682;23.352;2024-02-23T11:02:01;5.72;;;2.63;;
78834;SDS011;68187;42.682;23.352;2024-02-23T11:04:29;5.05;;;2.65;;
78834;SDS011;68187;42.682;23.352;2024-02-23T11:06:59;4.78;;;4.13;;
78834;SDS011;68187;42.682;23.352;2024-02-23T11:09:32;4.50;;;2.80;;
78834;SDS011;68187;42.682;23.352;2024-02-23T11:12:03;4.35;;;3.13;;
78834;SDS011;68187;42.682;23.352;2024-02-23T11:14:31;4.60;;;2.28;;
78834;SDS011;68187;42.682;23.352;2024-02-23T11:17:00;5.45;;;3.70;;
78834;SDS011;68187;42.682;23.352;2024-02-23T11:19:33;5.18;;;2.58;;
78834;SDS011;68187;42.682;23.352;2024-02-23T11:22:01;4.90;;;3.08;;
78834;SDS011;68187;42.682;23.352;2024-02-23T11:24:29;4.85;;;3.17;;
78834;SDS011;68187;42.682;23.352;2024-02-23T11:26:57;4.25;;;1.98;;
78834;SDS011;68187;42.682;23.352;2024-02-23T11:29:28;4.50;;;3.28;;
78834;SDS011;68187;42.682;23.352;2024-02-23T11:31:57;4.05;;;1.40;;
78834;SDS011;68187;42.682;23.352;2024-02-23T11:36:56;5.32;;;4.22;;
78834;SDS011;68187;42.682;23.352;2024-02-23T11:39:25;5.65;;;3.42;;
78834;SDS011;68187;42.682;23.352;2024-02-23T11:41:52;4.82;;;4.15;;
78834;SDS011;68187;42.682;23.352;2024-02-23T11:44:20;5.75;;;2.60;;
78834;SDS011;68187;42.682;23.352;2024-02-23T11:46:47;4.30;;;2.15;;
78834;SDS011;68187;42.682;23.352;2024-02-23T11:49:15;3.50;;;1.92;;
78834;SDS011;68187;42.682;23.352;2024-02-23T11:51:42;3.78;;;1.45;;
78834;SDS011;68187;42.682;23.352;2024-02-23T11:54:09;3.85;;;2.17;;
78834;SDS011;68187;42.682;23.352;2024-02-23T11:56:36;4.07;;;2.38;;
78834;SDS011;68187;42.682;23.352;2024-02-23T11:59:03;4.10;;;2.95;;
78834;SDS011;68187;42.682;23.352;2024-02-23T12:01:31;6.00;;;2.22;;
78834;SDS011;68187;42.682;23.352;2024-02-23T12:03:58;4.43;;;2.03;;
78834;SDS011;68187;42.682;23.352;2024-02-23T12:06:26;4.30;;;2.13;;
78834;SDS011;68187;42.682;23.352;2024-02-23T12:08:57;3.97;;;1.80;;
78834;SDS011;68187;42.682;23.352;2024-02-23T12:11:24;4.63;;;3.08;;
78834;SDS011;68187;42.682;23.352;2024-02-23T12:13:52;6.22;;;3.22;;
78834;SDS011;68187;42.682;23.352;2024-02-23T12:16:20;4.45;;;2.65;;
78834;SDS011;68187;42.682;23.352;2024-02-23T12:18:52;4.45;;;2.63;;
78834;SDS011;68187;42.682;23.352;2024-02-23T12:21:20;4.70;;;1.80;;
78834;SDS011;68187;42.682;23.352;2024-02-23T12:23:49;5.13;;;3.50;;
78834;SDS011;68187;42.682;23.352;2024-02-23T12:26:17;3.67;;;2.08;;
78834;SDS011;68187;42.682;23.352;2024-02-23T12:28:44;4.55;;;2.42;;
78834;SDS011;68187;42.682;23.352;2024-02-23T12:31:11;4.45;;;3.00;;
78834;SDS011;68187;42.682;23.352;2024-02-23T12:33:39;5.20;;;4.05;;
78834;SDS011;68187;42.682;23.352;2024-02-23T12:36:07;5.55;;;1.92;;
78834;SDS011;68187;42.682;23.352;2024-02-23T12:38:34;5.28;;;2.63;;
78834;SDS011;68187;42.682;23.352;2024-02-23T12:41:03;4.45;;;2.10;;
78834;SDS011;68187;42.682;23.352;2024-02-23T12:43:30;3.70;;;2.25;;
78834;SDS011;68187;42.682;23.352;2024-02-23T12:45:58;5.70;;;2.13;;
78834;SDS011;68187;42.682;23.352;2024-02-23T12:48:26;5.47;;;2.47;;
78834;SDS011;68187;42.682;23.352;2024-02-23T12:50:53;4.95;;;2.08;;
78834;SDS011;68187;42.682;23.352;2024-02-23T12:53:33;4.05;;;2.47;;
78834;SDS011;68187;42.682;23.352;2024-02-23T12:56:03;4.47;;;2.38;;
78834;SDS011;68187;42.682;23.352;2024-02-23T12:58:33;5.43;;;2.80;;
78834;SDS011;68187;42.682;23.352;2024-02-23T13:01:00;5.25;;;2.28;;
78834;SDS011;68187;42.682;23.352;2024-02-23T13:03:27;4.25;;;2.10;;
78834;SDS011;68187;42.682;23.352;2024-02-23T13:05:55;4.22;;;2.40;;
78834;SDS011;68187;42.682;23.352;2024-02-23T13:08:23;4.65;;;3.13;;
78834;SDS011;68187;42.682;23.352;2024-02-23T13:10:50;4.05;;;1.98;;
78834;SDS011;68187;42.682;23.352;2024-02-23T13:13:20;5.40;;;2.95;;
78834;SDS011;68187;42.682;23.352;2024-02-23T13:15:48;6.45;;;2.03;;
78834;SDS011;68187;42.682;23.352;2024-02-23T13:18:15;6.22;;;3.85;;
78834;SDS011;68187;42.682;23.352;2024-02-23T13:20:42;5.03;;;2.13;;
78834;SDS011;68187;42.682;23.352;2024-02-23T13:23:09;3.92;;;2.30;;
78834;SDS011;68187;42.682;23.352;2024-02-23T13:25:37;5.18;;;2.65;;
78834;SDS011;68187;42.682;23.352;2024-02-23T13:28:05;6.45;;;2.80;;
78834;SDS011;68187;42.682;23.352;2024-02-23T13:30:35;4.25;;;2.03;;
78834;SDS011;68187;42.682;23.352;2024-02-23T13:33:04;6.35;;;2.58;;
78834;SDS011;68187;42.682;23.352;2024-02-23T13:35:31;4.75;;;2.05;;
78834;SDS011;68187;42.682;23.352;2024-02-23T13:37:58;3.78;;;2.13;;
78834;SDS011;68187;42.682;23.352;2024-02-23T13:40:28;5.97;;;2.38;;
78834;SDS011;68187;42.682;23.352;2024-02-23T13:42:56;4.03;;;1.77;;
78834;SDS011;68187;42.682;23.352;2024-02-23T13:45:22;3.92;;;2.22;;
78834;SDS011;68187;42.682;23.352;2024-02-23T13:47:56;7.57;;;2.75;;
78834;SDS011;68187;42.682;23.352;2024-02-23T13:50:24;5.75;;;3.65;;
78834;SDS011;68187;42.682;23.352;2024-02-23T13:52:51;4.50;;;2.38;;
78834;SDS011;68187;42.682;23.352;2024-02-23T13:55:18;5.28;;;2.47;;
78834;SDS011;68187;42.682;23.352;2024-02-23T13:57:46;4.97;;;3.20;;
78834;SDS011;68187;42.682;23.352;2024-02-23T14:00:15;4.18;;;2.45;;
78834;SDS011;68187;42.682;23.352;2024-02-23T14:02:42;4.30;;;2.13;;
78834;SDS011;68187;42.682;23.352;2024-02-23T14:05:11;4.30;;;2.28;;
78834;SDS011;68187;42.682;23.352;2024-02-23T14:07:40;4.80;;;2.42;;
78834;SDS011;68187;42.682;23.352;2024-02-23T14:10:07;5.32;;;3.05;;
78834;SDS011;68187;42.682;23.352;2024-02-23T14:12:35;3.47;;;1.60;;
78834;SDS011;68187;42.682;23.352;2024-02-23T14:15:02;4.93;;;1.58;;
78834;SDS011;68187;42.682;23.352;2024-02-23T14:17:30;5.00;;;3.20;;
78834;SDS011;68187;42.682;23.352;2024-02-23T14:19:57;5.47;;;2.90;;
78834;SDS011;68187;42.682;23.352;2024-02-23T14:22:25;2.97;;;1.45;;
78834;SDS011;68187;42.682;23.352;2024-02-23T14:24:53;4.78;;;2.53;;
78834;SDS011;68187;42.682;23.352;2024-02-23T14:27:19;3.95;;;2.63;;